Nearby METAR Reports

Aktualna pogoda na lotniskach (dane METAR)

 

EPGD - Gdansk/Rebiechow, Poland
Distance from station: ENE 27mi, 44km
Updated: Fri, 23-Oct-2020 5:00pm PDT
Light rain, Few clouds
Light rain, Few clouds
 Wind from varies
Wind: varies 3 mph , 6 km/h
Temperature: 48°F , 9°C
Dew Point: 46°F , 8°C
Humidity: 94%
Barometer: 29.8 inHg , 1009 hPa
Summary: Light Rain
Clouds: Few Clouds
Visibility: 6 miles , 9 km
Cloud details: Few Clouds 1800 ft
2020/10/24 00:00 EPGD 240000Z VRB03KT 9000 -RA FEW018 09/08 Q1009
EPSC - Szczecin/Golenio, Poland
Distance from station: WSW 128mi, 205km
Updated: Fri, 23-Oct-2020 5:00pm PDT
Mist, Few clouds
Mist, Few clouds
 Wind from S
Wind: S 3 mph , 6 km/h
Temperature: 46°F , 8°C
Dew Point: 46°F , 8°C
Humidity: 100%
Barometer: 29.83 inHg , 1010 hPa
Summary: Mist
Clouds: Few Clouds
Visibility: 1 mile , 2 km
Cloud details: Few Clouds 100 ft
2020/10/24 00:00 EPSC 240000Z 18003KT 2400 BR FEW001 08/08 Q1010
 
EPPO - Poznan/Lawica, Poland
Distance from station: SSW 131mi, 210km
Updated: Fri, 23-Oct-2020 5:00pm PDT
Light rain, Overcast
Light rain, Overcast
 Wind from SW
Wind: SW 7 mph , 11 km/h
Temperature: 55°F , 13°C
Dew Point: 55°F , 13°C
Humidity: 100%
Barometer: 29.8 inHg , 1009 hPa
Summary: Light Rain
Clouds: Overcast
Visibility: 5 miles , 8 km
Cloud details: Overcast 900 ft
2020/10/24 00:00 EPPO 240000Z 23006KT 8000 -RA OVC009 13/13 Q1009
EPLL - Lodz/Lublinek, Poland
Distance from station: SSE 184mi, 296km
Updated: Fri, 23-Oct-2020 5:00pm PDT
Light rain, Mostly cloudy
Light rain, Mostly cloudy
 Wind from SW
Wind: SW 6 mph , 9 km/h
Temperature: 54°F , 12°C
Dew Point: 50°F , 10°C
Humidity: 88%
Barometer: 29.85 inHg , 1011 hPa
Summary: Light Rain
Clouds: Mostly Cloudy
Visibility: 6 miles , 10 km
Cloud details: Partly Cloudy 3000 ft
Mostly Cloudy 4500 ft
2020/10/24 00:00 EPLL 240000Z 23005KT 9999 -RA SCT030 BKN045 12/10 Q1011
 
EPWA - Warsaw/Okecie, Poland
Distance from station: SE 191mi, 307km
Updated: Fri, 23-Oct-2020 5:00pm PDT
Mist, Mostly cloudy
Mist, Mostly cloudy
 Wind from SSE
Wind: SSE 3 mph , 6 km/h
Temperature: 54°F , 12°C
Dew Point: 54°F , 12°C
Humidity: 100%
Barometer: 29.83 inHg , 1010 hPa
Summary: Mist
Clouds: Mostly Cloudy
Visibility: 3 miles , 5 km
Cloud details: Mostly Cloudy 3500 ft
2020/10/24 00:00 EPWA 240000Z 16003KT 5000 BR BKN035 12/12 Q1010 NOSIG
EPWR - Wroclaw/Strachow, Poland
Distance from station: S 219mi, 352km
Updated: Fri, 23-Oct-2020 5:00pm PDT
Light rain, Showers, Partly cloudy
Light rain, Showers, Partly cloudy
 Wind from SW
Wind: SW 7 mph , 11 km/h
Temperature: 57°F , 14°C
Dew Point: 54°F , 12°C
Humidity: 88%
Barometer: 29.85 inHg , 1011 hPa
Summary: Light rain, Showers
Clouds: Partly Cloudy
Visibility: 4 miles , 7 km
Cloud details: Partly Cloudy 3000 ft
Partly Cloudy 4800 ft
2020/10/24 00:00 EPWR 240000Z 22006KT 7000 -SHRA SCT030CB SCT048 14/12 Q1011

Metar display script from Saratoga-Weather.org